Time;durP1;ratioP1;P1;durP2;ratioP2;P2;SDS_P1;SDS_P2;PMS_P1;PMS_P2;Temp;Humidity;BMP_temperature;BMP_pressure;BME280_temperature;BME280_humidity;BME280_pressure;Samples;Min_cycle;Max_cycle;Signal;HPM_P1;HPM_P2
2021/10/27 00:02:11;;;;;;;;;;;14.80;99.90;;;;;;5134362;28;20055;-68
2021/10/27 00:04:36;;;;;;;;;;;14.80;99.90;;;;;;5134899;28;20384;-70
2021/10/27 00:07:02;;;;;;;;;;;14.80;99.90;;;;;;5134347;28;19908;-69
2021/10/27 00:09:28;;;;;;;;;;;14.80;99.90;;;;;;5134500;28;19994;-70
2021/10/27 00:11:54;;;;;;;;;;;14.80;99.90;;;;;;5116749;27;19908;-71
2021/10/27 00:14:21;;;;;;;;;;;14.80;99.90;;;;;;5138434;27;19964;-70
2021/10/27 00:16:47;;;;;;;;;;;14.80;99.90;;;;;;5138133;27;19969;-71
2021/10/27 00:19:13;;;;;;;;;;;14.90;99.90;;;;;;5138107;27;20365;-70
2021/10/27 00:21:38;;;;;;;;;;;14.90;99.90;;;;;;5138331;27;19907;-70
2021/10/27 00:24:04;;;;;;;;;;;14.80;99.90;;;;;;5137951;27;20010;-69
2021/10/27 00:26:30;;;;;;;;;;;14.80;99.90;;;;;;5137994;27;20061;-68
2021/10/27 00:28:55;;;;;;;;;;;14.80;99.90;;;;;;5137853;27;19915;-69
2021/10/27 00:31:21;;;;;;;;;;;14.90;99.90;;;;;;5138072;27;19922;-70
2021/10/27 00:33:46;;;;;;;;;;;14.80;99.90;;;;;;5137791;27;19911;-70
2021/10/27 00:36:12;;;;;;;;;;;14.80;99.90;;;;;;5137828;27;19907;-71
2021/10/27 00:38:38;;;;;;;;;;;14.80;99.90;;;;;;5137810;27;20390;-70
2021/10/27 00:41:05;;;;;;;;;;;14.70;99.90;;;;;;5137966;27;19956;-71
2021/10/27 00:43:31;;;;;;;;;;;14.80;99.90;;;;;;5137607;27;19914;-72
2021/10/27 00:45:56;;;;;;;;;;;14.80;99.90;;;;;;5137610;27;19908;-70
2021/10/27 00:48:22;;;;;;;;;;;14.90;99.90;;;;;;5137896;27;20259;-70
2021/10/27 00:50:48;;;;;;;;;;;14.90;99.90;;;;;;5137312;27;19908;-71
2021/10/27 00:53:13;;;;;;;;;;;14.90;99.90;;;;;;5137399;27;19911;-70
2021/10/27 00:55:39;;;;;;;;;;;15.00;99.90;;;;;;5137427;27;19907;-71
2021/10/27 00:58:05;;;;;;;;;;;14.80;99.90;;;;;;5137645;27;20355;-69
2021/10/27 01:00:31;;;;;;;;;;;14.80;99.90;;;;;;5118848;27;19908;-70
2021/10/27 01:02:56;;;;;;;;;;;14.80;99.90;;;;;;5137247;27;19908;-70
2021/10/27 01:05:22;;;;;;;;;;;14.70;99.90;;;;;;5137820;27;20373;-69
2021/10/27 01:07:48;;;;;;;;;;;14.70;99.90;;;;;;5118720;27;19907;-70
2021/10/27 01:10:14;;;;;;;;;;;14.70;99.90;;;;;;5137169;27;19907;-69
2021/10/27 01:12:39;;;;;;;;;;;14.70;99.90;;;;;;5137059;27;20371;-69
2021/10/27 01:15:06;;;;;;;;;;;14.60;99.90;;;;;;5137262;27;19911;-71
2021/10/27 01:17:32;;;;;;;;;;;14.70;99.90;;;;;;5136912;27;20359;-70
2021/10/27 01:19:59;;;;;;;;;;;14.60;99.90;;;;;;5136993;27;19908;-69
2021/10/27 01:22:31;;;;;;;;;;;14.60;99.90;;;;;;5136379;27;19912;-69
2021/10/27 01:24:58;;;;;;;;;;;14.60;99.90;;;;;;5136861;27;20342;-72
2021/10/27 01:27:23;;;;;;;;;;;14.50;99.90;;;;;;5136779;27;19930;-70
2021/10/27 01:29:49;;;;;;;;;;;14.50;99.90;;;;;;5136565;27;20367;-69
2021/10/27 01:32:22;;;;;;;;;;;14.50;99.90;;;;;;5136964;27;19977;-70
2021/10/27 01:34:47;;;;;;;;;;;14.50;99.90;;;;;;5136907;27;19956;-70
2021/10/27 01:37:13;;;;;;;;;;;14.60;99.90;;;;;;5136607;27;19908;-71
2021/10/27 01:39:39;;;;;;;;;;;14.50;99.90;;;;;;5137132;27;20006;-70
2021/10/27 01:42:05;;;;;;;;;;;14.50;99.90;;;;;;5136513;27;19950;-71
2021/10/27 01:44:30;;;;;;;;;;;14.50;99.90;;;;;;5136468;27;19972;-71
2021/10/27 01:46:56;;;;;;;;;;;14.40;99.90;;;;;;5136398;27;20435;-70
2021/10/27 01:49:21;;;;;;;;;;;14.40;99.90;;;;;;5136447;27;19907;-71
2021/10/27 01:51:47;;;;;;;;;;;14.50;99.90;;;;;;5136275;27;20287;-70
2021/10/27 01:54:12;;;;;;;;;;;14.50;99.90;;;;;;5136439;27;20260;-71
2021/10/27 01:56:38;;;;;;;;;;;14.40;99.90;;;;;;5136159;27;19930;-72
2021/10/27 01:59:03;;;;;;;;;;;14.30;99.90;;;;;;5136204;27;20375;-71
2021/10/27 02:01:29;;;;;;;;;;;14.30;99.90;;;;;;5136389;27;20003;-71
2021/10/27 02:03:55;;;;;;;;;;;14.30;99.90;;;;;;5136068;27;19907;-70
2021/10/27 02:06:21;;;;;;;;;;;14.30;99.90;;;;;;5136009;27;19986;-69
2021/10/27 02:08:46;;;;;;;;;;;14.30;99.90;;;;;;5135977;27;20318;-70
2021/10/27 02:11:12;;;;;;;;;;;14.40;99.90;;;;;;5135780;27;19963;-70
2021/10/27 02:13:37;;;;;;;;;;;14.40;99.90;;;;;;5135725;27;19962;-70
2021/10/27 02:16:03;;;;;;;;;;;14.30;99.90;;;;;;5135856;27;19947;-69
2021/10/27 02:18:29;;;;;;;;;;;14.30;99.90;;;;;;5135801;27;20260;-69
2021/10/27 02:20:55;;;;;;;;;;;14.40;99.90;;;;;;5135796;27;19907;-71
2021/10/27 02:23:20;;;;;;;;;;;14.40;99.90;;;;;;5135722;27;20422;-70
2021/10/27 02:25:46;;;;;;;;;;;14.40;99.90;;;;;;5135639;27;20279;-70
2021/10/27 02:28:11;;;;;;;;;;;14.30;99.90;;;;;;5136168;27;19907;-69
2021/10/27 02:30:37;;;;;;;;;;;14.40;99.90;;;;;;5135391;27;19915;-69
2021/10/27 02:33:03;;;;;;;;;;;14.40;99.90;;;;;;5136014;27;20377;-69
2021/10/27 02:35:29;;;;;;;;;;;14.40;99.90;;;;;;5134691;27;19914;-71
2021/10/27 02:37:54;;;;;;;;;;;14.40;99.90;;;;;;5135420;27;19915;-70
2021/10/27 02:40:20;;;;;;;;;;;14.40;99.90;;;;;;5135698;27;19929;-71
2021/10/27 02:42:45;;;;;;;;;;;14.40;99.90;;;;;;5135333;27;19914;-71
2021/10/27 02:45:11;;;;;;;;;;;14.50;99.90;;;;;;5135332;27;19912;-71
2021/10/27 02:47:38;;;;;;;;;;;14.50;99.90;;;;;;5116753;27;19939;-71
2021/10/27 02:50:04;;;;;;;;;;;14.40;99.90;;;;;;5135067;27;19959;-70
2021/10/27 02:52:29;;;;;;;;;;;14.50;99.90;;;;;;5135200;27;19907;-69
2021/10/27 02:54:55;;;;;;;;;;;14.50;99.90;;;;;;5135370;27;19918;-71
2021/10/27 02:57:20;;;;;;;;;;;14.50;99.90;;;;;;5135125;27;19914;-71
2021/10/27 02:59:46;;;;;;;;;;;14.60;99.90;;;;;;5135636;27;19907;-70
2021/10/27 03:02:11;;;;;;;;;;;14.60;99.90;;;;;;5135009;27;20006;-70
2021/10/27 03:04:37;;;;;;;;;;;14.50;99.90;;;;;;5135271;27;20015;-69
2021/10/27 03:07:02;;;;;;;;;;;14.50;99.90;;;;;;5134958;27;20409;-69
2021/10/27 03:09:28;;;;;;;;;;;14.50;99.90;;;;;;5135470;27;19960;-70
2021/10/27 03:11:53;;;;;;;;;;;14.50;99.90;;;;;;5134542;27;19907;-71
2021/10/27 03:14:19;;;;;;;;;;;14.50;99.90;;;;;;5135091;27;19919;-70
2021/10/27 03:16:45;;;;;;;;;;;14.50;99.90;;;;;;5134842;27;19907;-70
2021/10/27 03:19:10;;;;;;;;;;;14.40;99.90;;;;;;5135359;27;19908;-70
2021/10/27 03:21:36;;;;;;;;;;;14.50;99.90;;;;;;5135094;27;19908;-70
2021/10/27 03:24:02;;;;;;;;;;;14.40;99.90;;;;;;5134921;27;19914;-71
2021/10/27 03:26:27;;;;;;;;;;;14.40;99.90;;;;;;5135032;28;20011;-70
2021/10/27 03:28:53;;;;;;;;;;;14.40;99.90;;;;;;5134760;28;19914;-71
2021/10/27 03:31:18;;;;;;;;;;;14.50;99.90;;;;;;5134492;28;19931;-69
2021/10/27 03:33:44;;;;;;;;;;;14.40;99.90;;;;;;5135136;28;19912;-68
2021/10/27 03:36:10;;;;;;;;;;;14.40;99.90;;;;;;5134651;28;19911;-69
2021/10/27 03:38:36;;;;;;;;;;;14.40;99.90;;;;;;5134923;28;19961;-71
2021/10/27 03:41:01;;;;;;;;;;;14.40;99.90;;;;;;5134575;28;19907;-70
2021/10/27 03:43:27;;;;;;;;;;;14.40;99.90;;;;;;5135107;28;20366;-70
2021/10/27 03:45:53;;;;;;;;;;;14.40;99.90;;;;;;5135903;27;20431;-71
2021/10/27 03:48:18;;;;;;;;;;;14.40;99.90;;;;;;5138998;27;20308;-70
2021/10/27 03:50:44;;;;;;;;;;;14.40;99.90;;;;;;5138525;27;19915;-70
2021/10/27 03:53:10;;;;;;;;;;;14.40;99.90;;;;;;5138605;27;19911;-71
2021/10/27 03:55:36;;;;;;;;;;;14.40;99.90;;;;;;5138591;27;20394;-70
2021/10/27 03:58:01;;;;;;;;;;;14.40;99.90;;;;;;5138838;27;19946;-69
2021/10/27 04:00:27;;;;;;;;;;;14.40;99.90;;;;;;5138498;27;19990;-68
2021/10/27 04:02:52;;;;;;;;;;;14.30;99.90;;;;;;5138467;27;19914;-71
2021/10/27 04:05:18;;;;;;;;;;;14.20;99.90;;;;;;5138385;27;19907;-71
2021/10/27 04:07:43;;;;;;;;;;;14.20;99.90;;;;;;5138320;27;19909;-70
2021/10/27 04:10:10;;;;;;;;;;;14.10;99.90;;;;;;5138623;27;19914;-70
2021/10/27 04:12:36;;;;;;;;;;;14.10;99.90;;;;;;5138077;27;19951;-71
2021/10/27 04:15:03;;;;;;;;;;;14.10;99.90;;;;;;5138180;27;20363;-71
2021/10/27 04:17:29;;;;;;;;;;;14.10;99.90;;;;;;5138414;27;19935;-71
2021/10/27 04:19:54;;;;;;;;;;;14.10;99.90;;;;;;5138144;27;20303;-70
2021/10/27 04:22:20;;;;;;;;;;;14.10;99.90;;;;;;5138001;27;19914;-72
2021/10/27 04:24:45;;;;;;;;;;;14.10;99.90;;;;;;5138093;27;20275;-69
2021/10/27 04:27:11;;;;;;;;;;;14.10;99.90;;;;;;5138018;27;19972;-69
2021/10/27 04:29:36;;;;;;;;;;;14.00;99.90;;;;;;5137951;27;19938;-69
2021/10/27 04:32:02;;;;;;;;;;;14.00;99.90;;;;;;5137759;27;19907;-71
2021/10/27 04:34:28;;;;;;;;;;;14.10;99.90;;;;;;5137776;27;20283;-70
2021/10/27 04:36:53;;;;;;;;;;;14.10;99.90;;;;;;5137791;27;20302;-71
2021/10/27 04:39:19;;;;;;;;;;;14.00;99.90;;;;;;5138020;27;20385;-70
2021/10/27 04:41:44;;;;;;;;;;;14.00;99.90;;;;;;5137690;27;20003;-71
2021/10/27 04:44:10;;;;;;;;;;;13.90;99.90;;;;;;5137903;27;20274;-71
2021/10/27 04:46:35;;;;;;;;;;;14.00;99.90;;;;;;5137637;27;20404;-70
2021/10/27 04:49:01;;;;;;;;;;;14.00;99.90;;;;;;5137582;27;19943;-70
2021/10/27 04:51:26;;;;;;;;;;;14.00;99.90;;;;;;5137478;27;20325;-69
2021/10/27 04:53:52;;;;;;;;;;;14.00;99.90;;;;;;5137661;27;20267;-70
2021/10/27 04:56:17;;;;;;;;;;;14.00;99.90;;;;;;5137395;27;19911;-70
2021/10/27 04:58:43;;;;;;;;;;;14.00;99.90;;;;;;5136799;27;19911;-70
2021/10/27 05:01:08;;;;;;;;;;;14.10;99.90;;;;;;5137340;27;19915;-70
2021/10/27 05:03:34;;;;;;;;;;;14.10;99.90;;;;;;5137536;27;19955;-70
2021/10/27 05:06:01;;;;;;;;;;;14.10;99.90;;;;;;5137229;27;19915;-68
2021/10/27 05:08:30;;;;;;;;;;;14.10;99.90;;;;;;5137498;27;19907;-69
2021/10/27 05:10:55;;;;;;;;;;;14.10;99.90;;;;;;5136974;27;19907;-70
2021/10/27 05:13:21;;;;;;;;;;;14.00;99.90;;;;;;5136852;27;19919;-70
2021/10/27 05:15:47;;;;;;;;;;;14.00;99.90;;;;;;5137640;27;19914;-71
2021/10/27 05:18:13;;;;;;;;;;;14.00;99.90;;;;;;5137022;27;19952;-70
2021/10/27 05:20:38;;;;;;;;;;;14.10;99.90;;;;;;5136953;27;19907;-69
2021/10/27 05:23:03;;;;;;;;;;;14.10;99.90;;;;;;5137105;27;19915;-71
2021/10/27 05:25:29;;;;;;;;;;;14.00;99.90;;;;;;5136877;27;19987;-71
2021/10/27 05:27:54;;;;;;;;;;;14.00;99.90;;;;;;5137122;27;20416;-69
2021/10/27 05:30:20;;;;;;;;;;;14.00;99.90;;;;;;5136704;27;19919;-70
2021/10/27 05:32:46;;;;;;;;;;;14.00;99.90;;;;;;5136735;27;19907;-71
2021/10/27 05:35:11;;;;;;;;;;;14.00;99.90;;;;;;5137155;27;19918;-71
2021/10/27 05:37:37;;;;;;;;;;;14.00;99.90;;;;;;5136641;27;20386;-70
2021/10/27 05:40:03;;;;;;;;;;;14.00;99.90;;;;;;5137175;27;19908;-71
2021/10/27 05:42:29;;;;;;;;;;;14.00;99.90;;;;;;5136721;27;19914;-70
2021/10/27 05:44:57;;;;;;;;;;;14.00;99.90;;;;;;5137065;27;20315;-70
2021/10/27 05:47:23;;;;;;;;;;;14.00;99.90;;;;;;5136439;27;20363;-71
2021/10/27 05:50:58;;;;;;;;;;;14.00;99.90;;;;;;5136707;27;19907;-70
2021/10/27 05:55:34;;;;;;;;;;;14.10;99.90;;;;;;5136634;27;19919;-71
2021/10/27 05:58:00;;;;;;;;;;;14.10;99.90;;;;;;5136862;27;19907;-69
2021/10/27 06:00:25;;;;;;;;;;;14.10;99.90;;;;;;5136180;27;20006;-70
2021/10/27 06:02:51;;;;;;;;;;;14.10;99.90;;;;;;5136428;27;19913;-71
2021/10/27 06:05:16;;;;;;;;;;;14.10;99.90;;;;;;5136049;27;20367;-69
2021/10/27 06:07:42;;;;;;;;;;;14.10;99.90;;;;;;5136055;27;19914;-69
2021/10/27 06:10:08;;;;;;;;;;;14.10;99.90;;;;;;5136262;27;20375;-70
2021/10/27 06:12:33;;;;;;;;;;;14.10;99.90;;;;;;5135432;27;19958;-70
2021/10/27 06:14:59;;;;;;;;;;;14.10;99.90;;;;;;5135861;27;19915;-70
2021/10/27 06:17:25;;;;;;;;;;;14.10;99.90;;;;;;5136158;27;19908;-70
2021/10/27 06:19:52;;;;;;;;;;;14.10;99.90;;;;;;5135782;27;19911;-70
2021/10/27 06:22:17;;;;;;;;;;;14.00;99.90;;;;;;5136276;27;19911;-71
2021/10/27 06:24:43;;;;;;;;;;;14.10;99.90;;;;;;5135728;27;20392;-70
2021/10/27 06:27:09;;;;;;;;;;;14.10;99.90;;;;;;5135662;27;19907;-69
2021/10/27 06:29:43;;;;;;;;;;;14.10;99.90;;;;;;5135630;27;19907;-70
2021/10/27 06:34:46;;;;;;;;;;;14.10;99.90;;;;;;5135454;27;19937;-72
2021/10/27 06:48:08;;;;;;;;;;;13.60;99.90;;;;;;5135351;27;19915;-75
2021/10/27 06:50:34;;;;;;;;;;;13.60;99.90;;;;;;5135229;27;19907;-72
2021/10/27 06:53:00;;;;;;;;;;;13.50;99.90;;;;;;5134786;27;19911;-73
2021/10/27 06:55:25;;;;;;;;;;;13.40;99.90;;;;;;5134753;27;19951;-72
2021/10/27 06:57:51;;;;;;;;;;;13.40;99.90;;;;;;5135218;27;19908;-71
2021/10/27 07:16:10;;;;;;;;;;;13.40;99.90;;;;;;5134641;27;19929;-74
2021/10/27 07:18:35;;;;;;;;;;;13.30;99.90;;;;;;5135121;27;20355;-74
2021/10/27 07:21:01;;;;;;;;;;;13.40;99.90;;;;;;5134387;27;20360;-73
2021/10/27 07:23:27;;;;;;;;;;;13.40;99.90;;;;;;5134710;27;19964;-73
2021/10/27 07:25:58;;;;;;;;;;;13.30;99.90;;;;;;5134755;27;20367;-76
2021/10/27 07:28:27;;;;;;;;;;;13.30;99.90;;;;;;5134730;27;20368;-77
2021/10/27 07:30:53;;;;;;;;;;;13.40;99.90;;;;;;5134968;28;19908;-75
2021/10/27 07:33:19;;;;;;;;;;;13.40;99.90;;;;;;5134496;28;20379;-74
2021/10/27 07:35:55;;;;;;;;;;;13.40;99.90;;;;;;5134692;28;19908;-76
2021/10/27 07:41:05;;;;;;;;;;;13.40;99.90;;;;;;5135239;28;19957;-70
2021/10/27 07:43:32;;;;;;;;;;;13.40;99.90;;;;;;5134560;28;19947;-72
2021/10/27 07:45:58;;;;;;;;;;;13.40;99.90;;;;;;5134832;28;19914;-71
2021/10/27 07:48:24;;;;;;;;;;;13.40;99.90;;;;;;5134480;28;19908;-73
2021/10/27 07:50:52;;;;;;;;;;;13.50;99.90;;;;;;5134505;28;19914;-72
2021/10/27 07:53:18;;;;;;;;;;;13.50;99.90;;;;;;5134224;28;19951;-72
2021/10/27 07:55:49;;;;;;;;;;;13.60;99.90;;;;;;5134721;28;19957;-72
2021/10/27 07:58:16;;;;;;;;;;;13.60;99.90;;;;;;5134744;28;19915;-69
2021/10/27 08:00:42;;;;;;;;;;;13.70;99.90;;;;;;5134689;28;19911;-71
2021/10/27 08:03:08;;;;;;;;;;;13.70;99.90;;;;;;5134631;28;19915;-72
2021/10/27 08:05:38;;;;;;;;;;;13.80;99.90;;;;;;5134738;28;19908;-72
2021/10/27 08:08:04;;;;;;;;;;;13.80;99.90;;;;;;5134361;28;19914;-70
2021/10/27 08:10:29;;;;;;;;;;;13.90;99.90;;;;;;5134300;28;19908;-71
2021/10/27 08:12:55;;;;;;;;;;;13.90;99.90;;;;;;5133985;28;20286;-70
2021/10/27 08:15:21;;;;;;;;;;;13.90;99.90;;;;;;5134526;28;19911;-69
2021/10/27 08:17:47;;;;;;;;;;;13.80;99.90;;;;;;5134538;28;20432;-72
2021/10/27 08:20:14;;;;;;;;;;;13.80;99.90;;;;;;5134229;28;19942;-70
2021/10/27 08:22:42;;;;;;;;;;;13.80;99.90;;;;;;5134531;27;20320;-70
2021/10/27 08:25:15;;;;;;;;;;;13.90;99.90;;;;;;5134786;28;19908;-70
2021/10/27 08:27:41;;;;;;;;;;;13.90;99.90;;;;;;5115490;28;20298;-70
2021/10/27 08:30:08;;;;;;;;;;;13.90;99.90;;;;;;5134458;28;19908;-72
2021/10/27 08:32:51;;;;;;;;;;;14.00;99.90;;;;;;5116068;27;19907;-71
2021/10/27 08:35:17;;;;;;;;;;;14.10;99.90;;;;;;5138149;27;19912;-71
2021/10/27 08:37:46;;;;;;;;;;;14.20;99.90;;;;;;5138112;27;19964;-71
2021/10/27 08:40:11;;;;;;;;;;;14.10;99.90;;;;;;5119294;27;19908;-73
2021/10/27 08:42:38;;;;;;;;;;;14.20;99.90;;;;;;5137987;27;19915;-69
2021/10/27 08:45:04;;;;;;;;;;;14.30;99.90;;;;;;5137596;27;20048;-70
2021/10/27 08:47:31;;;;;;;;;;;14.40;99.90;;;;;;5138195;27;19976;-71
2021/10/27 08:49:57;;;;;;;;;;;14.40;99.90;;;;;;5137594;27;20386;-71
2021/10/27 08:52:23;;;;;;;;;;;14.50;99.90;;;;;;5137376;27;19960;-71
2021/10/27 08:54:49;;;;;;;;;;;14.50;99.90;;;;;;5137414;27;19915;-70
2021/10/27 08:57:16;;;;;;;;;;;14.40;99.90;;;;;;5137992;27;19991;-70
2021/10/27 08:59:54;;;;;;;;;;;14.40;99.90;;;;;;5137405;27;20291;-71
2021/10/27 09:03:02;;;;;;;;;;;14.50;99.90;;;;;;5137643;27;19908;-71
2021/10/27 10:05:00;;;;;;;;;;;15.10;99.90;;;;;;5136234;27;19990;-71
2021/10/27 10:07:27;;;;;;;;;;;15.10;99.90;;;;;;5136049;27;19908;-71
2021/10/27 10:09:53;;;;;;;;;;;15.10;99.90;;;;;;5136024;27;19955;-70
2021/10/27 10:12:19;;;;;;;;;;;15.20;99.90;;;;;;5135787;27;19915;-71
2021/10/27 10:14:49;;;;;;;;;;;15.30;99.90;;;;;;5117220;27;19934;-70
2021/10/27 10:17:15;;;;;;;;;;;15.30;99.90;;;;;;5117796;27;19907;-70
2021/10/27 10:19:42;;;;;;;;;;;15.30;99.90;;;;;;5135819;27;19967;-71
2021/10/27 10:22:25;;;;;;;;;;;15.40;99.90;;;;;;5135729;27;19998;-72
2021/10/27 10:24:51;;;;;;;;;;;15.50;99.90;;;;;;5136036;27;19914;-72
2021/10/27 10:27:33;;;;;;;;;;;15.50;99.90;;;;;;5135701;27;19907;-72
2021/10/27 10:30:03;;;;;;;;;;;15.50;99.90;;;;;;5136219;27;19908;-70
2021/10/27 10:32:37;;;;;;;;;;;15.60;99.90;;;;;;5117044;27;19908;-69
2021/10/27 10:35:10;;;;;;;;;;;15.70;99.90;;;;;;5136067;27;20252;-69
2021/10/27 10:37:51;;;;;;;;;;;15.80;99.90;;;;;;5135513;27;19918;-71
2021/10/27 10:40:27;;;;;;;;;;;15.80;99.90;;;;;;5135772;27;20359;-70
2021/10/27 10:42:59;;;;;;;;;;;15.80;99.90;;;;;;5135367;27;20287;-70
2021/10/27 11:25:07;;;;;;;;;;;16.20;99.90;;;;;;5135004;27;19953;-71
2021/10/27 11:38:36;;;;;;;;;;;16.20;99.90;;;;;;5134415;28;20062;-72
2021/10/27 11:43:55;;;;;;;;;;;16.20;99.90;;;;;;5134604;28;20013;-71
2021/10/27 11:46:28;;;;;;;;;;;16.20;99.90;;;;;;5134891;28;19907;-71
2021/10/27 11:49:08;;;;;;;;;;;16.20;99.90;;;;;;5134634;28;19914;-70
2021/10/27 11:51:34;;;;;;;;;;;16.20;99.90;;;;;;5135161;28;20299;-71
2021/10/27 11:54:06;;;;;;;;;;;16.20;99.90;;;;;;5134318;28;19925;-71
2021/10/27 11:56:32;;;;;;;;;;;16.10;99.90;;;;;;5134847;28;19930;-72
2021/10/27 11:59:00;;;;;;;;;;;16.10;99.90;;;;;;5134440;28;20011;-71
2021/10/27 12:01:30;;;;;;;;;;;16.20;99.90;;;;;;5134741;28;19914;-67
2021/10/27 12:04:07;;;;;;;;;;;16.20;99.90;;;;;;5134429;28;20018;-71
2021/10/27 12:19:36;;;;;;;;;;;16.10;99.90;;;;;;5138576;27;20276;-71
2021/10/27 12:22:05;;;;;;;;;;;16.20;99.90;;;;;;5138713;27;19911;-73
2021/10/27 12:24:32;;;;;;;;;;;16.20;99.90;;;;;;5138054;27;20268;-70
2021/10/27 12:27:06;;;;;;;;;;;16.20;99.90;;;;;;5138060;27;19998;-72
2021/10/27 12:29:33;;;;;;;;;;;16.30;99.90;;;;;;5138368;27;19907;-72
2021/10/27 12:32:03;;;;;;;;;;;16.40;99.90;;;;;;5138007;27;20260;-72
2021/10/27 12:34:29;;;;;;;;;;;16.40;99.90;;;;;;5137703;27;19940;-72
2021/10/27 12:36:57;;;;;;;;;;;16.40;99.90;;;;;;5137852;27;19908;-72
2021/10/27 12:39:29;;;;;;;;;;;16.40;99.90;;;;;;5138391;27;20289;-73
2021/10/27 12:42:03;;;;;;;;;;;16.40;99.90;;;;;;5138131;27;19956;-71
2021/10/27 12:44:28;;;;;;;;;;;16.40;99.90;;;;;;5137720;27;19990;-69
2021/10/27 12:47:06;;;;;;;;;;;16.30;99.90;;;;;;5137993;27;19939;-72
2021/10/27 12:49:32;;;;;;;;;;;16.30;99.90;;;;;;5137604;27;19908;-71
2021/10/27 12:51:57;;;;;;;;;;;16.20;99.90;;;;;;5137591;27;19915;-72
2021/10/27 12:54:29;;;;;;;;;;;16.20;99.90;;;;;;5137338;27;19911;-73
2021/10/27 12:57:07;;;;;;;;;;;16.20;99.90;;;;;;5138029;27;19914;-72
2021/10/27 12:59:34;;;;;;;;;;;16.20;99.90;;;;;;5137423;27;19907;-72
2021/10/27 13:02:13;;;;;;;;;;;16.20;99.90;;;;;;5137341;27;19908;-71
2021/10/27 13:04:51;;;;;;;;;;;16.20;99.90;;;;;;5118646;27;20387;-69
2021/10/27 13:07:29;;;;;;;;;;;16.10;99.90;;;;;;5118605;27;20363;-71
2021/10/27 13:12:57;;;;;;;;;;;16.00;99.90;;;;;;5137068;27;19919;-70
2021/10/27 13:15:40;;;;;;;;;;;16.00;99.90;;;;;;5137659;27;20275;-73
2021/10/27 13:23:24;;;;;;;;;;;16.10;99.90;;;;;;5137194;27;20362;-70
2021/10/27 13:31:18;;;;;;;;;;;16.10;99.90;;;;;;5136619;27;19915;-71
2021/10/27 13:33:44;;;;;;;;;;;16.20;99.90;;;;;;5136534;27;20278;-72
2021/10/27 13:36:11;;;;;;;;;;;16.20;99.90;;;;;;5136753;27;19911;-72
2021/10/27 13:38:37;;;;;;;;;;;16.30;99.90;;;;;;5118249;27;19914;-71
2021/10/27 13:41:05;;;;;;;;;;;16.30;99.90;;;;;;5137211;27;19907;-70
2021/10/27 13:43:47;;;;;;;;;;;16.30;99.90;;;;;;5118102;27;19927;-72
2021/10/27 14:05:58;;;;;;;;;;;16.30;99.90;;;;;;5136303;27;20002;-70
2021/10/27 14:07:44;;;;;;;;;;;16.30;99.90;;;;;;5136168;27;19914;-73
2021/10/27 14:10:17;;;;;;;;;;;16.30;99.90;;;;;;5136636;27;19967;-70
2021/10/27 14:12:48;;;;;;;;;;;16.30;99.90;;;;;;5135726;27;19915;-70
2021/10/27 15:25:47;;;;;;;;;;;15.90;99.90;;;;;;5094187;28;19931;-72
2021/10/27 15:35:44;;;;;;;;;;;16.00;99.90;;;;;;5093312;28;19923;-72
2021/10/27 15:43:31;;;;;;;;;;;15.90;99.90;;;;;;5097682;28;20399;-70
2021/10/27 15:51:27;;;;;;;;;;;15.80;99.90;;;;;;5097528;28;20378;-74
2021/10/27 15:53:55;;;;;;;;;;;15.80;99.90;;;;;;5097984;28;20014;-70
2021/10/27 15:56:21;;;;;;;;;;;15.80;99.90;;;;;;5097952;28;19908;-72
2021/10/27 15:58:47;;;;;;;;;;;15.80;99.90;;;;;;5097692;28;19931;-71
2021/10/27 16:01:12;;;;;;;;;;;15.70;99.90;;;;;;5097913;28;19908;-72
2021/10/27 16:03:38;;;;;;;;;;;15.80;99.90;;;;;;5097610;28;19954;-74
2021/10/27 16:06:04;;;;;;;;;;;15.80;99.90;;;;;;5097850;28;19916;-70
2021/10/27 16:08:30;;;;;;;;;;;15.80;99.90;;;;;;5097773;28;19908;-70
2021/10/27 16:10:57;;;;;;;;;;;15.70;99.90;;;;;;5097394;28;19915;-71
2021/10/27 16:13:24;;;;;;;;;;;15.70;99.90;;;;;;5118391;27;19919;-72
2021/10/27 16:18:21;;;;;;;;;;;15.70;99.90;;;;;;5138880;27;19918;-72
2021/10/27 16:20:47;;;;;;;;;;;15.60;99.90;;;;;;5138158;27;19908;-73
2021/10/27 16:23:15;;;;;;;;;;;15.60;99.90;;;;;;5138111;27;19907;-73
2021/10/27 16:25:41;;;;;;;;;;;15.60;99.90;;;;;;5138110;27;19911;-73
2021/10/27 16:28:07;;;;;;;;;;;15.60;99.90;;;;;;5138096;27;19915;-71
2021/10/27 16:30:33;;;;;;;;;;;15.60;99.90;;;;;;5138027;27;19908;-72
2021/10/27 16:32:58;;;;;;;;;;;15.50;99.90;;;;;;5137941;27;19914;-71
2021/10/27 16:35:24;;;;;;;;;;;15.50;99.90;;;;;;5137744;27;20378;-71
2021/10/27 16:37:49;;;;;;;;;;;15.50;99.90;;;;;;5137863;27;20367;-73
2021/10/27 16:40:15;;;;;;;;;;;15.50;99.90;;;;;;5137834;27;20406;-72
2021/10/27 16:42:41;;;;;;;;;;;15.40;99.90;;;;;;5138058;27;19998;-70
2021/10/27 16:45:08;;;;;;;;;;;15.40;99.90;;;;;;5138037;27;19907;-71
2021/10/27 16:47:34;;;;;;;;;;;15.40;99.90;;;;;;5137969;27;19911;-74
2021/10/27 16:50:00;;;;;;;;;;;15.40;99.90;;;;;;5137649;27;19908;-69
2021/10/27 16:52:25;;;;;;;;;;;15.40;99.90;;;;;;5138180;27;19912;-70
2021/10/27 16:54:51;;;;;;;;;;;15.40;99.90;;;;;;5136140;27;20002;-72
2021/10/27 16:57:17;;;;;;;;;;;15.30;99.90;;;;;;5137814;27;19907;-71
2021/10/27 16:59:42;;;;;;;;;;;15.20;99.90;;;;;;5137750;27;19907;-69
2021/10/27 17:02:08;;;;;;;;;;;15.20;99.90;;;;;;5137708;27;19946;-72
2021/10/27 17:04:34;;;;;;;;;;;15.20;99.90;;;;;;5137324;27;20257;-72
2021/10/27 17:06:59;;;;;;;;;;;15.20;99.90;;;;;;5137874;27;19911;-71
2021/10/27 17:09:27;;;;;;;;;;;15.20;99.90;;;;;;5137262;27;19907;-71
2021/10/27 17:11:52;;;;;;;;;;;15.20;99.90;;;;;;5137525;27;19915;-72
2021/10/27 17:14:18;;;;;;;;;;;15.10;99.90;;;;;;5136516;27;20291;-71
2021/10/27 17:16:44;;;;;;;;;;;15.00;99.90;;;;;;5137138;27;20320;-71
2021/10/27 17:19:09;;;;;;;;;;;14.90;99.90;;;;;;5137334;27;19907;-70
2021/10/27 17:21:36;;;;;;;;;;;14.80;99.90;;;;;;5137036;27;20006;-72
2021/10/27 17:24:01;;;;;;;;;;;15.00;99.90;;;;;;5136948;27;19946;-70
2021/10/27 17:26:27;;;;;;;;;;;15.00;99.90;;;;;;5137544;27;19908;-72
2021/10/27 17:28:53;;;;;;;;;;;14.90;99.90;;;;;;5136958;27;19930;-70
2021/10/27 17:31:19;;;;;;;;;;;14.90;99.90;;;;;;5136871;27;20367;-70
2021/10/27 17:33:45;;;;;;;;;;;14.80;99.90;;;;;;5136724;27;19918;-71
2021/10/27 17:36:11;;;;;;;;;;;14.90;99.90;;;;;;5136626;27;19949;-72
2021/10/27 17:38:38;;;;;;;;;;;14.90;99.90;;;;;;5136689;27;19907;-69
2021/10/27 17:41:04;;;;;;;;;;;14.90;99.90;;;;;;5136695;27;19998;-71
2021/10/27 17:43:30;;;;;;;;;;;14.80;99.90;;;;;;5136623;27;19977;-72
2021/10/27 17:45:56;;;;;;;;;;;14.70;99.90;;;;;;5118145;27;19956;-71
2021/10/27 17:48:27;;;;;;;;;;;14.70;99.90;;;;;;5136549;27;19911;-74
2021/10/27 17:50:56;;;;;;;;;;;14.80;99.90;;;;;;5117789;27;19908;-70
2021/10/27 17:58:40;;;;;;;;;;;14.60;99.90;;;;;;5136657;27;19914;-69
2021/10/27 18:01:13;;;;;;;;;;;14.50;99.90;;;;;;5136260;27;19916;-70
2021/10/27 18:03:41;;;;;;;;;;;14.50;99.90;;;;;;5136786;27;19915;-71
2021/10/27 18:06:08;;;;;;;;;;;14.60;99.90;;;;;;5135904;27;19914;-71
2021/10/27 18:08:37;;;;;;;;;;;14.50;99.90;;;;;;5117624;27;19952;-71
2021/10/27 18:11:05;;;;;;;;;;;14.60;99.90;;;;;;5136332;27;19908;-69
2021/10/27 18:13:35;;;;;;;;;;;14.40;99.90;;;;;;5135845;27;19964;-72
2021/10/27 18:38:07;;;;;;;;;;;14.10;99.90;;;;;;5135919;27;19960;-71
2021/10/27 18:43:12;;;;;;;;;;;13.90;99.90;;;;;;5135376;27;20275;-70
2021/10/27 18:45:39;;;;;;;;;;;13.80;99.90;;;;;;5135738;27;19907;-73
2021/10/27 18:48:05;;;;;;;;;;;13.80;99.90;;;;;;5135348;27;19908;-70
2021/10/27 18:50:39;;;;;;;;;;;13.80;99.90;;;;;;5135313;27;19914;-72
2021/10/27 18:56:33;;;;;;;;;;;13.80;99.90;;;;;;5134731;27;20366;-71
2021/10/27 18:59:19;;;;;;;;;;;13.80;99.90;;;;;;5120671;27;20397;-70
2021/10/27 19:12:13;;;;;;;;;;;13.60;99.90;;;;;;5134759;27;19962;-71
2021/10/27 19:17:07;;;;;;;;;;;13.40;99.90;;;;;;5134290;27;19935;-71
2021/10/27 19:19:33;;;;;;;;;;;13.30;99.90;;;;;;5134902;27;19914;-72
2021/10/27 19:21:58;;;;;;;;;;;13.40;99.90;;;;;;5134752;27;20263;-71
2021/10/27 19:25:27;;;;;;;;;;;13.20;99.90;;;;;;5134832;27;19907;-70
2021/10/27 19:27:30;;;;;;;;;;;13.10;99.90;;;;;;5116578;27;19908;-71
2021/10/27 19:30:01;;;;;;;;;;;13.20;99.90;;;;;;5116104;28;20002;-71
2021/10/27 19:32:44;;;;;;;;;;;13.30;99.90;;;;;;5135379;27;19957;-72
2021/10/27 20:11:31;;;;;;;;;;;13.00;99.90;;;;;;5134984;28;19914;-70
2021/10/27 20:17:04;;;;;;;;;;;12.70;99.90;;;;;;5134371;28;19915;-70
2021/10/27 20:48:42;;;;;;;;;;;12.60;99.90;;;;;;5137691;27;19934;-71
2021/10/27 20:55:23;;;;;;;;;;;12.30;99.90;;;;;;5137068;27;19972;-71
2021/10/27 21:00:45;;;;;;;;;;;12.30;99.90;;;;;;5137725;27;20014;-70
2021/10/27 21:03:40;;;;;;;;;;;12.30;99.90;;;;;;5136952;27;20454;-72
2021/10/27 21:14:01;;;;;;;;;;;12.10;99.90;;;;;;5136986;27;20397;-70